Pagrindinis puslapis
METAR-TAF:

METAR-TAF

Oro uostai :

Kamčiatkos Petropavlovskas, Rusija

platuma: 53-05N, ilguma: 158-35E, Aukštis: 24 m

Dabartinis oras

Ataskaita buvo paskelbta 22 minutes, ne 02:30 UTC
Vėjas 4 kt iš Šiaurės/Šiaurės Rytų, svyruoja nuo Šiaurės/Šiaurės Vakarų ir Rytų
Temperatūra -12°C
Drėgmė 56%
Slėgis 1008 hPa
Matomumas 10 km arba daugiau

METAR: UHPP 200230Z 03002MPS 340V090 9999 NSC M12/M19 Q1008 R34L/CLRD70 NOSIG RMK QFE753/1004

Laikas: 14:52 (02:52 UTC)

Prognozė

Ataskaita buvo paskelbta 1 valandą ir 14 minutes, ne 01:38 UTC
Prognozė galioja nuo 20 metu 03 UTC su 21 metu 09 UTC
Vėjas 6 kt iš Šiaurės su gūsio iki 19 kt
Matomumas 10 km arba daugiau
Išsisklaidę debesys ne aukštis 3000 ft, Liūtiniai kamuoliniai debesys.

TAF: UHPP 200138Z 2003/2109 36003G10MPS 9999 SCT030CB

Orai ataskaitas ir orų prognozės (METAR, TAF).

turimą stotys yra geltonos ir raudonos taškus žemėlapyje.

Perkelti pele per norėdami pamatyti stoties vardą.

Tada spustelėkite, norėdami matyti oro stebėjimo ir prognozės.

Norėdami pakeisti žemėlapį: spustelėkite ant žalios mygtukų su juodo kryžiaus žemyn,; žalią mygtuką su brūkšneliu, jei norite nutolinti; arba žalių rodyklių gretimoms žemėlapius.


METAR-TAF: